sensor_id;sensor_type;location;lat;lon;timestamp;pressure;altitude;pressure_sealevel;temperature;humidity
35704;BME280;21820;51.112;13.762;2023-10-09T00:00:59;100011.56;;;23.45;53.82
35704;BME280;21820;51.112;13.762;2023-10-09T00:03:29;99984.75;;;23.32;53.85
35704;BME280;21820;51.112;13.762;2023-10-09T00:05:55;99987.53;;;23.40;54.48
35704;BME280;21820;51.112;13.762;2023-10-09T00:08:21;99990.56;;;23.45;54.85
35704;BME280;21820;51.112;13.762;2023-10-09T00:10:47;99994.00;;;23.46;54.34
35704;BME280;21820;51.112;13.762;2023-10-09T00:13:23;99990.81;;;23.42;54.51
35704;BME280;21820;51.112;13.762;2023-10-09T00:15:58;99994.44;;;23.41;54.67
35704;BME280;21820;51.112;13.762;2023-10-09T00:18:34;99987.25;;;23.43;54.77
35704;BME280;21820;51.112;13.762;2023-10-09T00:21:00;99965.72;;;23.30;54.42
35704;BME280;21820;51.112;13.762;2023-10-09T00:23:27;99981.16;;;23.43;54.27
35704;BME280;21820;51.112;13.762;2023-10-09T00:25:53;99960.84;;;23.45;53.90
35704;BME280;21820;51.112;13.762;2023-10-09T00:28:37;99948.84;;;23.42;54.21
35704;BME280;21820;51.112;13.762;2023-10-09T00:31:06;99950.50;;;23.43;54.14
35704;BME280;21820;51.112;13.762;2023-10-09T00:33:35;99948.84;;;23.42;54.28
35704;BME280;21820;51.112;13.762;2023-10-09T00:36:05;99955.91;;;23.42;54.29
35704;BME280;21820;51.112;13.762;2023-10-09T00:38:38;99918.78;;;23.37;54.43
35704;BME280;21820;51.112;13.762;2023-10-09T00:41:11;99894.41;;;23.44;54.64
35704;BME280;21820;51.112;13.762;2023-10-09T00:43:45;99892.09;;;23.41;54.85
35704;BME280;21820;51.112;13.762;2023-10-09T00:46:11;99870.13;;;23.42;54.47
35704;BME280;21820;51.112;13.762;2023-10-09T00:48:50;99863.22;;;23.41;54.78
35704;BME280;21820;51.112;13.762;2023-10-09T00:51:16;99848.88;;;23.36;53.90
35704;BME280;21820;51.112;13.762;2023-10-09T00:53:52;99850.09;;;23.41;54.14
35704;BME280;21820;51.112;13.762;2023-10-09T00:56:19;99839.59;;;23.41;54.14
35704;BME280;21820;51.112;13.762;2023-10-09T00:58:57;99866.84;;;23.21;52.49
35704;BME280;21820;51.112;13.762;2023-10-09T01:01:34;99881.19;;;23.36;53.65
35704;BME280;21820;51.112;13.762;2023-10-09T01:04:02;99891.41;;;23.39;54.19
35704;BME280;21820;51.112;13.762;2023-10-09T01:06:44;99891.09;;;23.42;54.43
35704;BME280;21820;51.112;13.762;2023-10-09T01:09:14;99889.47;;;23.41;54.22
35704;BME280;21820;51.112;13.762;2023-10-09T01:11:43;99883.38;;;23.41;54.06
35704;BME280;21820;51.112;13.762;2023-10-09T01:14:35;99882.72;;;23.39;54.55
35704;BME280;21820;51.112;13.762;2023-10-09T01:17:04;99868.94;;;23.27;54.27
35704;BME280;21820;51.112;13.762;2023-10-09T01:19:36;99882.97;;;23.36;54.41
35704;BME280;21820;51.112;13.762;2023-10-09T01:22:02;99868.78;;;23.38;54.02
35704;BME280;21820;51.112;13.762;2023-10-09T01:24:37;99867.63;;;23.41;54.69
35704;BME280;21820;51.112;13.762;2023-10-09T01:27:04;99868.47;;;23.41;54.53
35704;BME280;21820;51.112;13.762;2023-10-09T01:29:36;99855.34;;;23.41;54.81
35704;BME280;21820;51.112;13.762;2023-10-09T01:32:01;99838.13;;;23.39;54.45
35704;BME280;21820;51.112;13.762;2023-10-09T01:34:31;99840.59;;;23.40;54.82
35704;BME280;21820;51.112;13.762;2023-10-09T01:37:15;99832.72;;;23.40;55.43
35704;BME280;21820;51.112;13.762;2023-10-09T01:39:48;99824.16;;;23.38;55.21
35704;BME280;21820;51.112;13.762;2023-10-09T01:42:23;99822.22;;;23.40;54.93
35704;BME280;21820;51.112;13.762;2023-10-09T01:44:50;99829.25;;;23.40;54.51
35704;BME280;21820;51.112;13.762;2023-10-09T01:47:16;99811.47;;;23.24;54.58
35704;BME280;21820;51.112;13.762;2023-10-09T01:49:43;99835.59;;;23.37;54.68
35704;BME280;21820;51.112;13.762;2023-10-09T01:52:10;99822.50;;;23.37;54.29
35704;BME280;21820;51.112;13.762;2023-10-09T01:54:40;99816.28;;;23.38;54.22
35704;BME280;21820;51.112;13.762;2023-10-09T01:57:08;99806.09;;;23.35;54.33
35704;BME280;21820;51.112;13.762;2023-10-09T01:59:48;99772.97;;;23.24;54.19
35704;BME280;21820;51.112;13.762;2023-10-09T02:02:16;99796.25;;;23.37;54.65
35704;BME280;21820;51.112;13.762;2023-10-09T02:05:06;99781.03;;;23.41;54.68
35704;BME280;21820;51.112;13.762;2023-10-09T02:07:50;99770.56;;;23.41;55.06
35704;BME280;21820;51.112;13.762;2023-10-09T02:12:53;99762.97;;;23.38;54.65
35704;BME280;21820;51.112;13.762;2023-10-09T02:15:32;99735.91;;;23.37;54.51
35704;BME280;21820;51.112;13.762;2023-10-09T02:18:12;99737.03;;;23.35;54.21
35704;BME280;21820;51.112;13.762;2023-10-09T02:23:24;99733.19;;;23.29;54.16
35704;BME280;21820;51.112;13.762;2023-10-09T02:25:59;99731.34;;;23.12;51.60
35704;BME280;21820;51.112;13.762;2023-10-09T02:28:27;99721.91;;;23.29;54.04
35704;BME280;21820;51.112;13.762;2023-10-09T02:30:58;99712.75;;;23.33;54.02
35704;BME280;21820;51.112;13.762;2023-10-09T02:33:26;99705.25;;;23.38;53.96
35704;BME280;21820;51.112;13.762;2023-10-09T02:35:55;99700.00;;;23.38;54.38
35704;BME280;21820;51.112;13.762;2023-10-09T02:38:24;99694.91;;;23.36;53.90
35704;BME280;21820;51.112;13.762;2023-10-09T02:40:51;99694.22;;;23.34;55.44
35704;BME280;21820;51.112;13.762;2023-10-09T02:43:29;99696.16;;;23.32;54.79
35704;BME280;21820;51.112;13.762;2023-10-09T02:46:00;99684.56;;;23.35;54.28
35704;BME280;21820;51.112;13.762;2023-10-09T02:48:38;99681.09;;;23.34;54.93
35704;BME280;21820;51.112;13.762;2023-10-09T02:51:08;99667.03;;;23.35;54.42
35704;BME280;21820;51.112;13.762;2023-10-09T02:53:40;99664.41;;;23.35;54.85
35704;BME280;21820;51.112;13.762;2023-10-09T02:56:05;99659.97;;;23.36;54.55
35704;BME280;21820;51.112;13.762;2023-10-09T02:58:42;99637.50;;;23.33;54.99
35704;BME280;21820;51.112;13.762;2023-10-09T03:01:12;99631.13;;;23.36;55.14
35704;BME280;21820;51.112;13.762;2023-10-09T03:03:40;99619.13;;;23.33;54.80
35704;BME280;21820;51.112;13.762;2023-10-09T03:06:09;99617.19;;;23.35;54.63
35704;BME280;21820;51.112;13.762;2023-10-09T03:08:38;99625.72;;;23.37;54.96
35704;BME280;21820;51.112;13.762;2023-10-09T03:11:04;99608.69;;;23.23;54.74
35704;BME280;21820;51.112;13.762;2023-10-09T03:13:31;99601.88;;;23.31;54.79
35704;BME280;21820;51.112;13.762;2023-10-09T03:15:58;99600.63;;;23.35;54.84
35704;BME280;21820;51.112;13.762;2023-10-09T03:18:24;99592.59;;;23.36;55.26
35704;BME280;21820;51.112;13.762;2023-10-09T03:20:49;99584.72;;;23.36;54.80
35704;BME280;21820;51.112;13.762;2023-10-09T03:23:15;99574.22;;;23.36;55.01
35704;BME280;21820;51.112;13.762;2023-10-09T03:25:41;99567.03;;;23.38;55.16
35704;BME280;21820;51.112;13.762;2023-10-09T03:28:11;99559.31;;;23.37;55.00
35704;BME280;21820;51.112;13.762;2023-10-09T03:30:37;99548.44;;;23.32;54.95
35704;BME280;21820;51.112;13.762;2023-10-09T03:33:05;99549.63;;;23.37;55.21
35704;BME280;21820;51.112;13.762;2023-10-09T03:35:32;99540.44;;;23.33;54.45
35704;BME280;21820;51.112;13.762;2023-10-09T03:37:59;99523.09;;;23.22;54.67
35704;BME280;21820;51.112;13.762;2023-10-09T03:40:40;99552.56;;;23.34;55.08
35704;BME280;21820;51.112;13.762;2023-10-09T03:43:08;99564.72;;;23.35;54.99
35704;BME280;21820;51.112;13.762;2023-10-09T03:45:35;99568.16;;;23.36;55.38
35704;BME280;21820;51.112;13.762;2023-10-09T03:48:00;99566.13;;;23.12;53.67
35704;BME280;21820;51.112;13.762;2023-10-09T03:50:47;99563.56;;;23.20;54.45
35704;BME280;21820;51.112;13.762;2023-10-09T03:53:14;99570.81;;;23.26;54.13
35704;BME280;21820;51.112;13.762;2023-10-09T03:55:40;99560.06;;;23.29;54.42
35704;BME280;21820;51.112;13.762;2023-10-09T03:58:09;99570.41;;;23.31;55.12
35704;BME280;21820;51.112;13.762;2023-10-09T04:00:39;99569.44;;;23.32;54.40
35704;BME280;21820;51.112;13.762;2023-10-09T04:03:10;99551.59;;;23.35;54.16
35704;BME280;21820;51.112;13.762;2023-10-09T04:05:37;99554.06;;;23.37;54.65
35704;BME280;21820;51.112;13.762;2023-10-09T04:08:02;99523.41;;;23.19;54.83
35704;BME280;21820;51.112;13.762;2023-10-09T04:10:37;99555.50;;;23.31;54.68
35704;BME280;21820;51.112;13.762;2023-10-09T04:13:10;99552.56;;;23.34;54.87
35704;BME280;21820;51.112;13.762;2023-10-09T04:15:38;99555.88;;;23.36;54.50
35704;BME280;21820;51.112;13.762;2023-10-09T04:18:07;99562.25;;;23.34;54.63
35704;BME280;21820;51.112;13.762;2023-10-09T04:20:40;99557.00;;;23.34;54.51
35704;BME280;21820;51.112;13.762;2023-10-09T04:23:40;99557.81;;;23.34;54.91
35704;BME280;21820;51.112;13.762;2023-10-09T04:26:25;99563.38;;;23.31;55.18
35704;BME280;21820;51.112;13.762;2023-10-09T04:28:51;99565.31;;;23.29;54.59
35704;BME280;21820;51.112;13.762;2023-10-09T04:31:19;99551.88;;;23.32;54.51
35704;BME280;21820;51.112;13.762;2023-10-09T04:33:47;99548.44;;;23.32;54.88
35704;BME280;21820;51.112;13.762;2023-10-09T04:36:32;99557.81;;;23.34;55.08
35704;BME280;21820;51.112;13.762;2023-10-09T04:39:11;99560.59;;;23.33;55.23
35704;BME280;21820;51.112;13.762;2023-10-09T04:41:36;99553.69;;;23.32;54.85
35704;BME280;21820;51.112;13.762;2023-10-09T04:44:08;99538.75;;;23.32;55.01
35704;BME280;21820;51.112;13.762;2023-10-09T04:46:50;99515.91;;;23.24;54.66
35704;BME280;21820;51.112;13.762;2023-10-09T04:49:35;99527.31;;;23.33;55.37
35704;BME280;21820;51.112;13.762;2023-10-09T04:52:13;99523.19;;;23.31;54.97
35704;BME280;21820;51.112;13.762;2023-10-09T04:54:50;99517.13;;;23.30;54.68
35704;BME280;21820;51.112;13.762;2023-10-09T04:57:44;99505.13;;;23.28;55.23
35704;BME280;21820;51.112;13.762;2023-10-09T05:02:52;99500.72;;;23.28;55.28
35704;BME280;21820;51.112;13.762;2023-10-09T05:05:28;99486.75;;;23.28;55.74
35704;BME280;21820;51.112;13.762;2023-10-09T05:08:09;99479.41;;;23.31;55.44
35704;BME280;21820;51.112;13.762;2023-10-09T05:10:48;99488.78;;;23.16;54.01
35704;BME280;21820;51.112;13.762;2023-10-09T05:13:23;99485.41;;;23.23;53.97
35704;BME280;21820;51.112;13.762;2023-10-09T05:16:04;99466.88;;;23.25;54.12
35704;BME280;21820;51.112;13.762;2023-10-09T05:18:30;99477.63;;;23.32;54.76
35704;BME280;21820;51.112;13.762;2023-10-09T05:21:02;99468.91;;;23.31;54.76
35704;BME280;21820;51.112;13.762;2023-10-09T05:23:46;99464.50;;;23.32;54.51
35704;BME280;21820;51.112;13.762;2023-10-09T05:26:17;99465.63;;;23.29;54.67
35704;BME280;21820;51.112;13.762;2023-10-09T05:29:03;99450.56;;;23.31;55.18
35704;BME280;21820;51.112;13.762;2023-10-09T05:31:48;99437.53;;;23.21;54.96
35704;BME280;21820;51.112;13.762;2023-10-09T05:34:41;99435.72;;;23.22;54.82
35704;BME280;21820;51.112;13.762;2023-10-09T05:37:34;99430.41;;;23.14;55.01
35704;BME280;21820;51.112;13.762;2023-10-09T05:40:01;99424.03;;;23.16;54.88
35704;BME280;21820;51.112;13.762;2023-10-09T05:45:08;99464.66;;;23.30;55.48
35704;BME280;21820;51.112;13.762;2023-10-09T05:47:50;99462.31;;;23.27;55.31
35704;BME280;21820;51.112;13.762;2023-10-09T05:50:24;99470.88;;;23.29;55.31
35704;BME280;21820;51.112;13.762;2023-10-09T05:52:50;99467.94;;;23.32;55.49
35704;BME280;21820;51.112;13.762;2023-10-09T05:55:16;99473.50;;;23.29;54.75
35704;BME280;21820;51.112;13.762;2023-10-09T05:57:44;99472.53;;;23.30;55.58
35704;BME280;21820;51.112;13.762;2023-10-09T06:00:29;99467.56;;;23.27;55.53
35704;BME280;21820;51.112;13.762;2023-10-09T06:03:13;99462.31;;;23.27;54.68
35704;BME280;21820;51.112;13.762;2023-10-09T06:05:48;99463.28;;;23.26;54.97
35704;BME280;21820;51.112;13.762;2023-10-09T06:08:29;99477.25;;;23.27;55.14
35704;BME280;21820;51.112;13.762;2023-10-09T06:11:07;99468.91;;;23.31;55.00
35704;BME280;21820;51.112;13.762;2023-10-09T06:13:52;99458.44;;;23.31;54.16
35704;BME280;21820;51.112;13.762;2023-10-09T06:16:40;99467.69;;;23.25;55.28
35704;BME280;21820;51.112;13.762;2023-10-09T06:19:26;99441.88;;;23.13;54.95
35704;BME280;21820;51.112;13.762;2023-10-09T06:21:54;99455.34;;;23.18;55.65
35704;BME280;21820;51.112;13.762;2023-10-09T06:24:41;99457.50;;;23.22;55.19
35704;BME280;21820;51.112;13.762;2023-10-09T06:27:07;99459.34;;;23.22;54.20
35704;BME280;21820;51.112;13.762;2023-10-09T06:29:33;99453.56;;;23.18;54.79
35704;BME280;21820;51.112;13.762;2023-10-09T06:32:05;99448.84;;;23.22;54.92
35704;BME280;21820;51.112;13.762;2023-10-09T06:34:56;99453.25;;;23.21;55.14
35704;BME280;21820;51.112;13.762;2023-10-09T06:37:40;99459.63;;;23.19;54.78
35704;BME280;21820;51.112;13.762;2023-10-09T06:40:26;99457.97;;;23.18;54.54
35704;BME280;21820;51.112;13.762;2023-10-09T06:43:10;99469.16;;;23.20;54.38
35704;BME280;21820;51.112;13.762;2023-10-09T06:45:42;99469.16;;;23.20;54.71
35704;BME280;21820;51.112;13.762;2023-10-09T06:48:11;99443.88;;;23.19;54.54
35704;BME280;21820;51.112;13.762;2023-10-09T06:50:57;99459.63;;;23.19;54.58
35704;BME280;21820;51.112;13.762;2023-10-09T06:53:28;99457.00;;;23.19;54.23
35704;BME280;21820;51.112;13.762;2023-10-09T06:56:13;99466.25;;;23.05;52.03
35704;BME280;21820;51.112;13.762;2023-10-09T06:58:59;99461.28;;;23.20;53.73
35704;BME280;21820;51.112;13.762;2023-10-09T07:01:29;99458.81;;;23.18;54.41
35704;BME280;21820;51.112;13.762;2023-10-09T07:04:05;99470.78;;;23.21;54.52
35704;BME280;21820;51.112;13.762;2023-10-09T07:06:49;99473.72;;;23.18;54.66
35704;BME280;21820;51.112;13.762;2023-10-09T07:09:16;99491.09;;;23.19;54.65
35704;BME280;21820;51.112;13.762;2023-10-09T07:11:51;99492.13;;;23.26;54.21
35704;BME280;21820;51.112;13.762;2023-10-09T07:14:18;99493.13;;;23.25;54.34
35704;BME280;21820;51.112;13.762;2023-10-09T07:19:40;99478.75;;;23.11;54.73
35704;BME280;21820;51.112;13.762;2023-10-09T07:22:05;99506.53;;;23.22;54.40
35704;BME280;21820;51.112;13.762;2023-10-09T07:24:41;99503.94;;;23.22;55.39
35704;BME280;21820;51.112;13.762;2023-10-09T07:27:16;99492.44;;;23.23;54.36
35704;BME280;21820;51.112;13.762;2023-10-09T07:29:42;99485.25;;;23.25;54.67
35704;BME280;21820;51.112;13.762;2023-10-09T07:32:17;99487.75;;;23.27;55.12
35704;BME280;21820;51.112;13.762;2023-10-09T07:34:51;99495.75;;;23.25;54.74
35704;BME280;21820;51.112;13.762;2023-10-09T07:37:27;99500.00;;;23.26;55.03
35704;BME280;21820;51.112;13.762;2023-10-09T07:40:03;99505.25;;;23.26;55.33
35704;BME280;21820;51.112;13.762;2023-10-09T07:42:33;99505.97;;;23.28;54.99
35704;BME280;21820;51.112;13.762;2023-10-09T07:45:01;99505.25;;;23.26;54.73
35704;BME280;21820;51.112;13.762;2023-10-09T07:47:47;99518.25;;;23.28;54.91
35704;BME280;21820;51.112;13.762;2023-10-09T07:50:35;99516.44;;;23.28;55.31
35704;BME280;21820;51.112;13.762;2023-10-09T07:53:07;99509.53;;;23.27;55.00
35704;BME280;21820;51.112;13.762;2023-10-09T07:55:51;99506.25;;;23.25;55.18
35704;BME280;21820;51.112;13.762;2023-10-09T07:58:21;99513.66;;;23.30;55.03
35704;BME280;21820;51.112;13.762;2023-10-09T08:00:56;99493.06;;;23.17;55.83
35704;BME280;21820;51.112;13.762;2023-10-09T08:03:32;99517.41;;;23.27;55.10
35704;BME280;21820;51.112;13.762;2023-10-09T08:05:59;99518.38;;;23.26;55.05
35704;BME280;21820;51.112;13.762;2023-10-09T08:08:54;99529.84;;;23.25;55.50
35704;BME280;21820;51.112;13.762;2023-10-09T08:11:38;99529.16;;;23.23;54.76
35704;BME280;21820;51.112;13.762;2023-10-09T08:14:24;99525.88;;;23.21;55.45
35704;BME280;21820;51.112;13.762;2023-10-09T08:16:59;99522.28;;;23.22;55.41
35704;BME280;21820;51.112;13.762;2023-10-09T08:19:49;99524.59;;;23.25;54.88
35704;BME280;21820;51.112;13.762;2023-10-09T08:22:37;99523.19;;;23.13;54.27
35704;BME280;21820;51.112;13.762;2023-10-09T08:25:12;99534.03;;;23.18;54.59
35704;BME280;21820;51.112;13.762;2023-10-09T08:27:52;99536.03;;;23.24;54.82
35704;BME280;21820;51.112;13.762;2023-10-09T08:30:21;99534.41;;;23.23;54.83
35704;BME280;21820;51.112;13.762;2023-10-09T08:32:51;99528.19;;;23.24;55.24
35704;BME280;21820;51.112;13.762;2023-10-09T08:35:33;99514.03;;;23.17;55.56
35704;BME280;21820;51.112;13.762;2023-10-09T08:38:03;99513.53;;;23.13;55.57
35704;BME280;21820;51.112;13.762;2023-10-09T08:40:34;99535.78;;;23.27;55.06
35704;BME280;21820;51.112;13.762;2023-10-09T08:43:20;99528.03;;;23.25;55.01
35704;BME280;21820;51.112;13.762;2023-10-09T08:48:12;99549.84;;;23.26;55.54
35704;BME280;21820;51.112;13.762;2023-10-09T08:50:41;99543.91;;;23.24;55.19
35704;BME280;21820;51.112;13.762;2023-10-09T08:53:09;99548.22;;;23.25;55.11
35704;BME280;21820;51.112;13.762;2023-10-09T08:55:36;99546.53;;;23.24;55.38
35704;BME280;21820;51.112;13.762;2023-10-09T08:58:03;99544.59;;;23.26;54.78
35704;BME280;21820;51.112;13.762;2023-10-09T09:00:37;99542.97;;;23.25;55.64
35704;BME280;21820;51.112;13.762;2023-10-09T09:03:04;99542.69;;;23.28;55.27
35704;BME280;21820;51.112;13.762;2023-10-09T09:05:31;99533.41;;;23.24;55.57
35704;BME280;21820;51.112;13.762;2023-10-09T09:08:01;99530.00;;;23.23;54.97
35704;BME280;21820;51.112;13.762;2023-10-09T09:10:28;99532.78;;;23.22;56.17
35704;BME280;21820;51.112;13.762;2023-10-09T09:13:02;99522.34;;;23.12;55.09
35704;BME280;21820;51.112;13.762;2023-10-09T09:15:29;99547.38;;;23.24;55.23
35704;BME280;21820;51.112;13.762;2023-10-09T09:18:05;99546.53;;;23.24;56.54
35704;BME280;21820;51.112;13.762;2023-10-09T09:20:32;99542.97;;;23.25;55.35
35704;BME280;21820;51.112;13.762;2023-10-09T09:23:02;99541.28;;;23.24;55.57
35704;BME280;21820;51.112;13.762;2023-10-09T09:25:44;99551.78;;;23.24;56.39
35704;BME280;21820;51.112;13.762;2023-10-09T09:28:14;99558.16;;;23.21;55.42
35704;BME280;21820;51.112;13.762;2023-10-09T09:30:46;99550.81;;;23.25;55.19
35704;BME280;21820;51.112;13.762;2023-10-09T09:33:27;99553.44;;;23.25;56.15
35704;BME280;21820;51.112;13.762;2023-10-09T09:36:05;99536.03;;;23.24;56.00
35704;BME280;21820;51.112;13.762;2023-10-09T09:38:33;99533.41;;;23.24;55.30
35704;BME280;21820;51.112;13.762;2023-10-09T09:41:13;99510.75;;;23.15;55.67
35704;BME280;21820;51.112;13.762;2023-10-09T09:43:53;99529.47;;;23.20;55.32
35704;BME280;21820;51.112;13.762;2023-10-09T09:46:22;99537.84;;;23.06;53.78
35704;BME280;21820;51.112;13.762;2023-10-09T09:48:53;99525.13;;;23.11;55.76
35704;BME280;21820;51.112;13.762;2023-10-09T09:51:19;99550.16;;;23.23;55.40
35704;BME280;21820;51.112;13.762;2023-10-09T09:53:46;99554.41;;;23.24;54.96
35704;BME280;21820;51.112;13.762;2023-10-09T09:56:14;99548.50;;;23.22;54.87
35704;BME280;21820;51.112;13.762;2023-10-09T09:58:46;99549.16;;;23.24;55.50
35704;BME280;21820;51.112;13.762;2023-10-09T10:01:19;99543.91;;;23.24;55.59
35704;BME280;21820;51.112;13.762;2023-10-09T10:03:59;99537.72;;;23.25;55.98
35704;BME280;21820;51.112;13.762;2023-10-09T10:06:28;99544.91;;;23.23;55.87
35704;BME280;21820;51.112;13.762;2023-10-09T10:08:54;99532.63;;;23.23;55.58
35704;BME280;21820;51.112;13.762;2023-10-09T10:11:42;99538.97;;;23.21;56.18
35704;BME280;21820;51.112;13.762;2023-10-09T10:14:14;99528.34;;;23.22;56.13
35704;BME280;21820;51.112;13.762;2023-10-09T10:17:03;99533.72;;;23.21;56.26
35704;BME280;21820;51.112;13.762;2023-10-09T10:22:27;99547.69;;;23.21;55.55
35704;BME280;21820;51.112;13.762;2023-10-09T10:24:53;99544.22;;;23.21;55.56
35704;BME280;21820;51.112;13.762;2023-10-09T10:27:20;99559.00;;;23.22;55.63
35704;BME280;21820;51.112;13.762;2023-10-09T10:32:55;99548.50;;;23.22;55.34
35704;BME280;21820;51.112;13.762;2023-10-09T10:35:34;99542.59;;;23.20;55.17
35704;BME280;21820;51.112;13.762;2023-10-09T10:38:28;99537.50;;;23.18;56.66
35704;BME280;21820;51.112;13.762;2023-10-09T10:43:36;99530.16;;;23.22;55.95
35704;BME280;21820;51.112;13.762;2023-10-09T10:46:18;99528.13;;;23.16;55.48
35704;BME280;21820;51.112;13.762;2023-10-09T10:49:07;99527.81;;;23.19;55.67
35704;BME280;21820;51.112;13.762;2023-10-09T10:51:42;99520.63;;;23.21;55.81
35704;BME280;21820;51.112;13.762;2023-10-09T10:54:20;99517.03;;;23.22;56.02
35704;BME280;21820;51.112;13.762;2023-10-09T10:56:57;99517.03;;;23.22;55.59
35704;BME280;21820;51.112;13.762;2023-10-09T10:59:23;99503.41;;;23.18;55.29
35704;BME280;21820;51.112;13.762;2023-10-09T11:01:52;99506.81;;;23.19;56.12
35704;BME280;21820;51.112;13.762;2023-10-09T11:04:39;99518.59;;;23.15;55.52
35704;BME280;21820;51.112;13.762;2023-10-09T11:07:08;99494.41;;;22.86;53.95
35704;BME280;21820;51.112;13.762;2023-10-09T11:09:57;99498.91;;;23.11;55.58
35704;BME280;21820;51.112;13.762;2023-10-09T11:12:44;99496.66;;;23.16;55.31
35704;BME280;21820;51.112;13.762;2023-10-09T11:15:31;99500.94;;;23.17;56.30
35704;BME280;21820;51.112;13.762;2023-10-09T11:18:10;99513.06;;;23.18;55.70
35704;BME280;21820;51.112;13.762;2023-10-09T11:20:55;99507.66;;;23.19;55.98
35704;BME280;21820;51.112;13.762;2023-10-09T11:23:30;99503.25;;;23.20;55.52
35704;BME280;21820;51.112;13.762;2023-10-09T11:25:59;99483.75;;;23.22;55.35
35704;BME280;21820;51.112;13.762;2023-10-09T11:28:43;99490.81;;;23.22;55.22
35704;BME280;21820;51.112;13.762;2023-10-09T11:31:22;99489.28;;;23.19;55.76
35704;BME280;21820;51.112;13.762;2023-10-09T11:33:49;99498.00;;;23.20;55.77
35704;BME280;21820;51.112;13.762;2023-10-09T11:36:17;99492.22;;;23.16;55.98
35704;BME280;21820;51.112;13.762;2023-10-09T11:38:43;99513.44;;;23.23;55.84
35704;BME280;21820;51.112;13.762;2023-10-09T11:41:12;99511.13;;;23.20;55.63
35704;BME280;21820;51.112;13.762;2023-10-09T11:43:51;99506.03;;;23.18;55.88
35704;BME280;21820;51.112;13.762;2023-10-09T11:46:17;99505.88;;;23.20;55.73
35704;BME280;21820;51.112;13.762;2023-10-09T11:49:18;99508.50;;;23.20;55.57
35704;BME280;21820;51.112;13.762;2023-10-09T11:51:46;99501.56;;;23.19;55.73
35704;BME280;21820;51.112;13.762;2023-10-09T11:54:31;99489.59;;;23.16;56.60
35704;BME280;21820;51.112;13.762;2023-10-09T11:56:57;99484.72;;;23.21;55.71
35704;BME280;21820;51.112;13.762;2023-10-09T11:59:29;99483.06;;;23.20;55.54
35704;BME280;21820;51.112;13.762;2023-10-09T12:02:06;99482.25;;;23.20;56.05
35704;BME280;21820;51.112;13.762;2023-10-09T12:04:37;99482.25;;;23.20;55.85
35704;BME280;21820;51.112;13.762;2023-10-09T12:07:05;99474.34;;;23.12;55.60
35704;BME280;21820;51.112;13.762;2023-10-09T12:09:36;99489.16;;;23.21;55.51
35704;BME280;21820;51.112;13.762;2023-10-09T12:12:03;99484.72;;;23.21;56.46
35704;BME280;21820;51.112;13.762;2023-10-09T12:14:29;99483.06;;;23.20;56.10
35704;BME280;21820;51.112;13.762;2023-10-09T12:17:04;99481.94;;;23.23;55.56
35704;BME280;21820;51.112;13.762;2023-10-09T12:19:33;99483.06;;;23.20;55.62
35704;BME280;21820;51.112;13.762;2023-10-09T12:21:59;99482.78;;;23.06;54.86
35704;BME280;21820;51.112;13.762;2023-10-09T12:24:33;99481.38;;;23.11;54.95
35704;BME280;21820;51.112;13.762;2023-10-09T12:26:59;99488.09;;;23.14;55.18
35704;BME280;21820;51.112;13.762;2023-10-09T12:29:25;99492.06;;;23.18;55.26
35704;BME280;21820;51.112;13.762;2023-10-09T12:31:58;99489.44;;;23.18;55.42
35704;BME280;21820;51.112;13.762;2023-10-09T12:34:24;99495.53;;;23.18;55.69
35704;BME280;21820;51.112;13.762;2023-10-09T12:36:54;99484.88;;;23.20;55.52
35704;BME280;21820;51.112;13.762;2023-10-09T12:39:21;99488.31;;;23.20;55.50
35704;BME280;21820;51.112;13.762;2023-10-09T12:41:47;99489.16;;;23.21;55.85
35704;BME280;21820;51.112;13.762;2023-10-09T12:44:14;99484.22;;;23.18;55.89
35704;BME280;21820;51.112;13.762;2023-10-09T12:46:46;99493.06;;;23.17;56.20
35704;BME280;21820;51.112;13.762;2023-10-09T12:49:23;99484.38;;;23.16;55.89
35704;BME280;21820;51.112;13.762;2023-10-09T12:51:52;99467.06;;;23.06;55.72
35704;BME280;21820;51.112;13.762;2023-10-09T12:54:18;99485.03;;;23.18;56.34
35704;BME280;21820;51.112;13.762;2023-10-09T12:56:45;99475.13;;;23.12;55.92
35704;BME280;21820;51.112;13.762;2023-10-09T12:59:14;99476.19;;;23.19;55.52
35704;BME280;21820;51.112;13.762;2023-10-09T13:01:43;99463.31;;;23.08;56.13
35704;BME280;21820;51.112;13.762;2023-10-09T13:04:12;99480.59;;;23.19;56.32
35704;BME280;21820;51.112;13.762;2023-10-09T13:06:45;99482.56;;;23.17;55.91
35704;BME280;21820;51.112;13.762;2023-10-09T13:09:15;99474.69;;;23.17;56.51
35704;BME280;21820;51.112;13.762;2023-10-09T13:11:42;99475.34;;;23.19;56.04
35704;BME280;21820;51.112;13.762;2023-10-09T13:14:08;99470.41;;;23.16;56.05
35704;BME280;21820;51.112;13.762;2023-10-09T13:16:43;99475.34;;;23.19;56.10
35704;BME280;21820;51.112;13.762;2023-10-09T13:19:08;99465.16;;;23.16;56.26
35704;BME280;21820;51.112;13.762;2023-10-09T13:21:37;99448.38;;;23.09;56.05
35704;BME280;21820;51.112;13.762;2023-10-09T13:24:05;99478.97;;;23.18;56.07
35704;BME280;21820;51.112;13.762;2023-10-09T13:26:38;99466.53;;;23.20;55.81
35704;BME280;21820;51.112;13.762;2023-10-09T13:29:03;99469.31;;;23.18;56.34
35704;BME280;21820;51.112;13.762;2023-10-09T13:31:29;99471.78;;;23.20;55.79
35704;BME280;21820;51.112;13.762;2023-10-09T13:33:59;99472.09;;;23.17;55.98
35704;BME280;21820;51.112;13.762;2023-10-09T13:36:26;99465.16;;;23.16;56.57
35704;BME280;21820;51.112;13.762;2023-10-09T13:38:55;99460.59;;;23.18;56.37
35704;BME280;21820;51.112;13.762;2023-10-09T13:41:21;99467.06;;;23.06;55.68
35704;BME280;21820;51.112;13.762;2023-10-09T13:43:47;99472.75;;;23.01;55.07
35704;BME280;21820;51.112;13.762;2023-10-09T13:46:17;99478.06;;;23.09;54.88